Time;durP1;ratioP1;P1;durP2;ratioP2;P2;SDS_P1;SDS_P2;PMS_P1;PMS_P2;Temp;Humidity;BMP_temperature;BMP_pressure;BME280_temperature;BME280_humidity;BME280_pressure;Samples;Min_cycle;Max_cycle;Signal;HPM_P1;HPM_P2
2021/05/24 00:01:16;;;;;;;7.50;4.43;;;22.60;44.30;;;;;;6158732;28;80238;-67
2021/05/24 00:04:17;;;;;;;7.07;4.90;;;22.60;44.00;;;;;;6164511;28;81434;-67
2021/05/24 00:07:17;;;;;;;8.82;5.03;;;22.60;44.20;;;;;;6176321;28;80396;-68
2021/05/24 00:10:18;;;;;;;7.50;4.80;;;22.60;44.20;;;;;;6157251;28;81092;-67
2021/05/24 00:13:19;;;;;;;11.88;4.90;;;22.60;44.10;;;;;;6166019;28;81647;-68
2021/05/24 00:16:19;;;;;;;10.82;5.20;;;22.60;44.10;;;;;;6168624;28;81138;-67
2021/05/24 00:19:20;;;;;;;7.85;4.65;;;22.60;44.20;;;;;;6156605;28;81724;-68
2021/05/24 00:22:20;;;;;;;7.43;4.40;;;22.50;44.10;;;;;;6181446;28;80544;-67
2021/05/24 00:25:21;;;;;;;8.35;4.63;;;22.60;44.10;;;;;;6174979;28;81128;-69
2021/05/24 00:28:21;;;;;;;7.20;4.03;;;22.60;44.30;;;;;;6171675;28;80362;-69
2021/05/24 00:31:22;;;;;;;6.68;4.43;;;22.60;44.10;;;;;;6165270;28;81508;-68
2021/05/24 00:34:23;;;;;;;7.53;4.90;;;22.60;44.00;;;;;;6173773;28;80946;-68
2021/05/24 00:37:23;;;;;;;7.60;4.88;;;22.60;44.10;;;;;;6156975;28;80434;-68
2021/05/24 00:40:24;;;;;;;7.10;4.50;;;22.60;44.00;;;;;;6160653;28;80822;-68
2021/05/24 00:43:25;;;;;;;7.72;4.03;;;22.60;44.00;;;;;;6186823;28;89192;-68
2021/05/24 00:46:25;;;;;;;7.65;4.30;;;22.50;43.90;;;;;;6167111;28;80554;-68
2021/05/24 00:49:26;;;;;;;6.53;3.95;;;22.50;43.90;;;;;;6182608;28;80595;-68
2021/05/24 00:52:26;;;;;;;5.72;3.88;;;22.50;43.80;;;;;;6182139;28;80219;-67
2021/05/24 00:55:27;;;;;;;7.38;4.45;;;22.50;43.80;;;;;;6173475;28;80597;-67
2021/05/24 00:58:27;;;;;;;7.05;3.70;;;22.50;43.70;;;;;;6181189;28;80557;-68
2021/05/24 01:01:29;;;;;;;6.13;4.40;;;22.50;44.00;;;;;;6176014;28;80952;-67
2021/05/24 01:04:29;;;;;;;6.20;4.40;;;22.50;43.90;;;;;;6181275;28;81100;-67
2021/05/24 01:07:30;;;;;;;7.07;4.30;;;22.50;43.90;;;;;;6182086;28;80457;-67
2021/05/24 01:10:31;;;;;;;5.35;3.83;;;22.50;43.90;;;;;;6172445;28;80646;-67
2021/05/24 01:13:34;;;;;;;7.47;4.50;;;22.50;43.80;;;;;;6160341;28;80671;-67
2021/05/24 01:16:34;;;;;;;6.32;3.88;;;22.50;43.90;;;;;;6169100;28;81507;-67
2021/05/24 01:19:35;;;;;;;6.45;4.15;;;22.50;43.90;;;;;;6165062;28;80519;-68
2021/05/24 01:22:37;;;;;;;10.88;4.38;;;22.50;43.90;;;;;;6171177;28;80575;-68
2021/05/24 01:25:38;;;;;;;6.38;4.03;;;22.50;43.80;;;;;;6182768;28;83226;-68
2021/05/24 01:28:38;;;;;;;4.45;3.47;;;22.50;43.80;;;;;;6171098;28;80529;-68
2021/05/24 01:31:39;;;;;;;5.55;3.67;;;22.50;43.70;;;;;;6162329;28;80424;-68
2021/05/24 01:34:39;;;;;;;6.47;4.32;;;22.50;43.80;;;;;;6177931;28;80299;-67
2021/05/24 01:37:40;;;;;;;6.88;4.10;;;22.50;43.70;;;;;;6194835;28;80314;-67
2021/05/24 01:40:40;;;;;;;4.07;2.78;;;22.50;43.70;;;;;;6181258;28;81586;-67
2021/05/24 01:43:41;;;;;;;7.25;4.03;;;22.50;43.70;;;;;;6170084;28;81388;-68
2021/05/24 01:46:41;;;;;;;6.38;4.10;;;22.50;43.60;;;;;;6155868;28;80344;-67
2021/05/24 01:49:47;;;;;;;5.68;3.65;;;22.50;43.60;;;;;;6182971;28;80586;-68
2021/05/24 01:52:47;;;;;;;4.43;3.20;;;22.50;43.60;;;;;;6166284;28;80987;-69
2021/05/24 01:55:48;;;;;;;5.55;3.70;;;22.50;43.60;;;;;;6156757;28;81353;-69
2021/05/24 01:58:48;;;;;;;5.20;3.53;;;22.50;43.80;;;;;;6150050;28;80409;-69
2021/05/24 02:01:49;;;;;;;5.22;3.70;;;22.50;43.50;;;;;;6167929;28;80773;-68
2021/05/24 02:04:49;;;;;;;6.00;3.45;;;22.50;43.50;;;;;;6180718;28;81489;-69
2021/05/24 02:07:50;;;;;;;4.97;3.38;;;22.50;43.70;;;;;;6168679;28;81616;-68
2021/05/24 02:10:50;;;;;;;4.28;3.40;;;22.40;43.50;;;;;;6167079;28;81827;-68
2021/05/24 02:13:51;;;;;;;6.57;3.53;;;22.40;43.40;;;;;;6180778;28;80825;-68
2021/05/24 02:16:51;;;;;;;5.28;3.70;;;22.40;43.40;;;;;;6180409;28;81271;-68
2021/05/24 02:19:53;;;;;;;6.53;3.55;;;22.40;43.40;;;;;;6179709;28;81129;-69
2021/05/24 02:22:54;;;;;;;7.72;3.45;;;22.40;43.30;;;;;;6179031;28;81744;-68
2021/05/24 02:25:54;;;;;;;5.78;3.40;;;22.40;43.50;;;;;;6180448;28;81294;-68
2021/05/24 02:28:55;;;;;;;6.82;2.95;;;22.40;43.30;;;;;;6180066;28;80408;-68
2021/05/24 02:31:55;;;;;;;5.20;3.35;;;22.40;43.20;;;;;;6167458;28;80484;-68
2021/05/24 02:34:56;;;;;;;5.30;3.33;;;22.40;43.30;;;;;;6168177;28;81443;-68
2021/05/24 02:37:56;;;;;;;4.50;3.15;;;22.40;43.40;;;;;;6167347;28;80262;-68
2021/05/24 02:40:57;;;;;;;4.07;2.88;;;22.40;43.40;;;;;;6184683;28;80680;-68
2021/05/24 02:43:58;;;;;;;5.90;3.50;;;22.40;43.30;;;;;;6178351;28;83135;-68
2021/05/24 02:46:58;;;;;;;5.40;3.60;;;22.40;43.30;;;;;;6180121;28;80836;-68
2021/05/24 02:49:59;;;;;;;5.50;3.40;;;22.40;43.20;;;;;;6179207;28;80481;-67
2021/05/24 02:52:59;;;;;;;5.20;2.92;;;22.40;43.10;;;;;;6178505;28;82462;-67
2021/05/24 02:56:00;;;;;;;4.78;3.25;;;22.40;43.20;;;;;;6179533;28;80258;-67
2021/05/24 02:59:00;;;;;;;4.03;2.90;;;22.40;43.10;;;;;;6186974;28;80773;-67
2021/05/24 03:02:02;;;;;;;5.35;3.53;;;22.40;43.00;;;;;;6155401;28;81703;-68
2021/05/24 03:05:03;;;;;;;5.40;3.15;;;22.40;43.60;;;;;;6154802;28;80848;-68
2021/05/24 03:08:03;;;;;;;4.55;2.88;;;22.40;43.10;;;;;;6169205;28;80540;-67
2021/05/24 03:11:04;;;;;;;5.47;3.20;;;22.40;43.20;;;;;;6162661;28;81992;-67
2021/05/24 03:14:04;;;;;;;3.28;2.70;;;22.40;43.00;;;;;;6169709;28;81058;-67
2021/05/24 03:17:05;;;;;;;3.13;2.67;;;22.40;43.10;;;;;;6165632;28;80874;-67
2021/05/24 03:20:05;;;;;;;4.07;2.97;;;22.40;43.10;;;;;;6150786;28;81609;-67
2021/05/24 03:23:06;;;;;;;4.72;2.92;;;22.40;43.00;;;;;;6169911;28;80491;-67
2021/05/24 03:26:06;;;;;;;5.50;3.20;;;22.40;43.10;;;;;;6168677;28;80818;-67
2021/05/24 03:29:07;;;;;;;7.32;2.90;;;22.40;43.10;;;;;;6172755;28;80631;-68
2021/05/24 03:32:07;;;;;;;5.20;3.08;;;22.40;43.10;;;;;;6158331;28;81374;-68
2021/05/24 03:35:08;;;;;;;6.30;3.20;;;22.40;43.10;;;;;;6157015;28;80764;-67
2021/05/24 03:38:08;;;;;;;4.40;3.00;;;22.30;42.70;;;;;;6173240;28;82796;-67
2021/05/24 03:41:09;;;;;;;6.13;3.05;;;22.40;43.20;;;;;;6168389;28;81594;-67
2021/05/24 03:44:09;;;;;;;4.45;3.05;;;22.40;43.10;;;;;;6172279;28;81325;-68
2021/05/24 03:47:10;;;;;;;5.43;3.13;;;22.40;43.20;;;;;;6182696;28;80516;-68
2021/05/24 03:50:10;;;;;;;4.93;3.40;;;22.40;43.40;;;;;;6166467;28;80735;-69
2021/05/24 03:53:11;;;;;;;6.13;3.22;;;22.40;43.40;;;;;;6173748;28;80396;-72
2021/05/24 03:56:13;;;;;;;4.50;3.10;;;22.40;43.60;;;;;;6183454;28;80787;-70
2021/05/24 03:59:14;;;;;;;7.60;3.40;;;22.40;44.00;;;;;;6181928;28;80324;-70
2021/05/24 04:02:14;;;;;;;5.82;2.95;;;22.40;44.10;;;;;;6181812;28;80767;-68
2021/05/24 04:08:15;;;;;;;4.07;2.83;;;22.40;44.10;;;;;;6166214;28;80327;-69
2021/05/24 04:11:16;;;;;;;7.53;3.45;;;22.40;43.90;;;;;;6166981;28;81810;-69
2021/05/24 04:14:16;;;;;;;9.38;3.00;;;22.40;43.90;;;;;;6157843;28;80370;-70
2021/05/24 04:17:21;;;;;;;4.57;2.85;;;22.40;45.00;;;;;;6169803;28;80995;-70
2021/05/24 04:20:23;;;;;;;5.97;3.10;;;22.40;45.10;;;;;;6162880;28;80358;-69
2021/05/24 04:23:23;;;;;;;7.28;3.20;;;22.40;45.10;;;;;;6157935;28;81143;-69
2021/05/24 04:26:24;;;;;;;4.40;3.00;;;22.40;45.40;;;;;;6174518;28;81089;-70
2021/05/24 04:29:24;;;;;;;5.03;2.90;;;22.40;45.30;;;;;;6164291;28;81462;-70
2021/05/24 04:32:25;;;;;;;5.30;3.13;;;22.50;45.40;;;;;;6172718;28;83877;-69
2021/05/24 04:35:25;;;;;;;4.55;3.00;;;22.50;45.00;;;;;;6181880;28;81529;-69
2021/05/24 04:38:26;;;;;;;9.38;3.75;;;22.50;44.80;;;;;;6183119;28;81632;-69
2021/05/24 04:41:26;;;;;;;4.40;2.97;;;22.50;45.10;;;;;;6181871;28;80692;-66
2021/05/24 04:44:27;;;;;;;5.05;2.60;;;22.50;45.90;;;;;;6160325;28;81125;-69
2021/05/24 04:47:27;;;;;;;6.15;3.10;;;22.50;45.50;;;;;;6170450;28;80472;-70
2021/05/24 04:50:28;;;;;;;6.65;2.83;;;22.50;45.10;;;;;;6164653;28;80670;-68
2021/05/24 04:53:28;;;;;;;5.10;3.28;;;22.50;44.90;;;;;;6175210;28;80413;-69
2021/05/24 04:56:29;;;;;;;11.73;3.00;;;22.50;44.70;;;;;;6180935;28;80277;-71
2021/05/24 04:59:30;;;;;;;5.60;2.80;;;22.50;44.50;;;;;;6188072;28;83737;-69
2021/05/24 05:02:30;;;;;;;6.60;2.83;;;22.50;45.10;;;;;;6173950;28;80432;-71
2021/05/24 05:05:33;;;;;;;3.88;3.10;;;22.50;44.80;;;;;;6182221;28;81625;-72
2021/05/24 05:08:34;;;;;;;12.05;3.38;;;22.50;44.70;;;;;;6161976;28;81714;-71
2021/05/24 05:11:34;;;;;;;7.00;3.05;;;22.50;45.10;;;;;;6175055;28;80316;-69
2021/05/24 05:14:35;;;;;;;4.78;2.65;;;22.60;45.50;;;;;;6164033;28;81057;-69
2021/05/24 05:17:35;;;;;;;4.88;2.92;;;22.60;46.00;;;;;;6153742;28;81509;-66
2021/05/24 05:20:36;;;;;;;4.43;2.92;;;22.60;46.00;;;;;;6155992;28;81851;-65
2021/05/24 05:23:36;;;;;;;7.53;3.08;;;22.60;46.10;;;;;;6152243;28;82326;-67
2021/05/24 05:26:37;;;;;;;8.02;3.72;;;22.60;45.60;;;;;;6168853;28;80374;-68
2021/05/24 05:29:37;;;;;;;7.30;3.58;;;22.60;45.90;;;;;;6163356;28;80337;-69
2021/05/24 05:32:38;;;;;;;5.82;3.40;;;22.60;46.00;;;;;;6175187;28;80438;-69
2021/05/24 05:35:38;;;;;;;6.88;3.20;;;22.60;45.60;;;;;;6181289;28;80724;-69
2021/05/24 05:38:39;;;;;;;5.82;3.08;;;22.60;46.20;;;;;;6157487;28;80978;-67
2021/05/24 05:41:39;;;;;;;4.35;3.08;;;22.60;45.20;;;;;;6174232;28;80134;-70
2021/05/24 05:44:40;;;;;;;4.75;2.72;;;22.60;46.30;;;;;;6196335;28;81466;-69
2021/05/24 05:47:40;;;;;;;9.73;3.70;;;22.60;44.80;;;;;;6161520;28;80645;-68
2021/05/24 05:50:41;;;;;;;7.80;2.80;;;22.60;46.30;;;;;;6157318;28;80542;-68
2021/05/24 05:53:41;;;;;;;4.63;2.88;;;22.60;46.50;;;;;;6175265;28;81680;-68
2021/05/24 05:56:42;;;;;;;9.23;2.75;;;22.60;46.70;;;;;;6161337;28;81500;-69
2021/05/24 05:59:42;;;;;;;6.88;2.60;;;22.60;46.60;;;;;;6175447;28;80678;-69
2021/05/24 06:02:43;;;;;;;6.20;2.67;;;22.60;46.10;;;;;;6163659;28;80750;-69
2021/05/24 06:05:43;;;;;;;5.03;2.97;;;22.60;46.30;;;;;;6174719;28;81715;-69
2021/05/24 06:08:44;;;;;;;6.28;2.60;;;22.60;45.80;;;;;;6180849;28;80367;-69
2021/05/24 06:11:46;;;;;;;4.88;2.83;;;22.60;46.20;;;;;;6178150;28;80423;-69
2021/05/24 06:14:47;;;;;;;4.00;2.80;;;22.60;45.90;;;;;;6152121;28;80805;-69
2021/05/24 06:17:47;;;;;;;4.20;2.50;;;22.60;45.90;;;;;;6174045;28;82229;-69
2021/05/24 06:20:48;;;;;;;5.05;2.63;;;22.60;45.90;;;;;;6161352;28;80493;-68
2021/05/24 06:23:48;;;;;;;3.17;2.58;;;22.60;45.70;;;;;;6157242;28;81694;-69
2021/05/24 06:26:49;;;;;;;3.95;2.58;;;22.60;45.60;;;;;;6176856;28;80807;-69
2021/05/24 06:29:49;;;;;;;6.30;2.88;;;22.60;45.60;;;;;;6181148;28;80011;-69
2021/05/24 06:32:50;;;;;;;4.65;2.80;;;22.60;45.40;;;;;;6181235;28;81426;-69
2021/05/24 06:35:51;;;;;;;4.60;2.75;;;22.60;45.40;;;;;;6174975;28;81019;-68
2021/05/24 06:38:51;;;;;;;6.90;2.90;;;22.60;45.30;;;;;;6175160;28;80576;-69
2021/05/24 06:41:52;;;;;;;4.22;2.67;;;22.60;45.20;;;;;;6177625;28;80152;-69
2021/05/24 06:44:52;;;;;;;3.88;2.60;;;22.60;45.10;;;;;;6179037;28;80482;-68
2021/05/24 06:47:53;;;;;;;5.13;2.40;;;22.60;45.20;;;;;;6155130;28;80566;-67
2021/05/24 06:50:53;;;;;;;4.95;2.45;;;22.60;44.50;;;;;;6176104;28;80341;-67
2021/05/24 06:53:54;;;;;;;2.60;2.30;;;22.60;44.10;;;;;;6180394;28;81386;-67
2021/05/24 06:56:54;;;;;;;3.65;2.10;;;22.60;44.20;;;;;;6182517;28;80172;-68
2021/05/24 06:59:55;;;;;;;3.97;2.10;;;22.60;44.30;;;;;;6156459;28;81957;-68
2021/05/24 07:02:55;;;;;;;4.68;2.20;;;22.60;45.10;;;;;;6157808;28;80373;-68
2021/05/24 07:05:56;;;;;;;3.42;2.20;;;22.70;44.50;;;;;;6157814;28;80130;-67
2021/05/24 07:08:57;;;;;;;5.20;2.40;;;22.70;44.40;;;;;;6159112;28;80788;-67
2021/05/24 07:11:57;;;;;;;3.10;2.05;;;22.70;44.50;;;;;;6180715;28;81010;-67
2021/05/24 07:14:58;;;;;;;4.55;2.05;;;22.70;44.50;;;;;;6184309;28;80490;-67
2021/05/24 07:17:58;;;;;;;3.78;2.10;;;22.70;44.80;;;;;;6163376;28;81214;-68
2021/05/24 07:20:59;;;;;;;3.35;2.45;;;22.70;44.40;;;;;;6175299;28;81410;-69
2021/05/24 07:23:59;;;;;;;4.60;1.90;;;22.70;44.50;;;;;;6180670;28;80530;-67
2021/05/24 07:27:00;;;;;;;1.75;1.40;;;22.70;42.20;;;;;;6187647;28;80590;-67
2021/05/24 07:30:01;;;;;;;5.10;1.80;;;22.60;41.20;;;;;;6183005;28;80547;-66
2021/05/24 07:33:01;;;;;;;3.25;1.60;;;22.60;41.80;;;;;;6198927;28;82024;-66
2021/05/24 07:36:02;;;;;;;2.58;1.80;;;22.60;41.80;;;;;;6183405;28;80691;-65
2021/05/24 07:39:02;;;;;;;2.33;1.73;;;22.60;41.90;;;;;;6161517;28;80317;-64
2021/05/24 07:42:03;;;;;;;4.50;1.83;;;22.60;41.70;;;;;;6168509;28;82664;-66
2021/05/24 07:45:03;;;;;;;2.08;1.48;;;22.60;41.40;;;;;;6182610;28;80426;-65
2021/05/24 07:48:04;;;;;;;3.85;1.60;;;22.60;41.80;;;;;;6179647;28;80912;-65
2021/05/24 07:51:04;;;;;;;5.57;1.83;;;22.60;41.50;;;;;;6181945;28;80337;-65
2021/05/24 07:54:05;;;;;;;2.05;1.52;;;22.60;41.60;;;;;;6153750;28;80738;-66
2021/05/24 07:57:05;;;;;;;3.63;1.50;;;22.60;41.40;;;;;;6152046;28;80535;-66
2021/05/24 08:00:06;;;;;;;4.45;1.50;;;22.60;41.20;;;;;;6160129;28;80318;-65
2021/05/24 08:03:07;;;;;;;2.75;1.88;;;22.60;41.40;;;;;;6155828;28;81226;-67
2021/05/24 08:06:07;;;;;;;7.32;1.90;;;22.60;41.10;;;;;;6155094;28;80573;-65
2021/05/24 08:09:08;;;;;;;3.95;1.50;;;22.50;41.10;;;;;;6152774;28;80727;-66
2021/05/24 08:12:08;;;;;;;3.72;1.50;;;22.60;41.20;;;;;;6174640;28;81086;-66
2021/05/24 08:15:09;;;;;;;3.03;1.77;;;22.60;41.10;;;;;;6174564;28;80396;-67
2021/05/24 08:18:09;;;;;;;1.60;1.50;;;22.60;41.30;;;;;;6157115;28;80835;-67
2021/05/24 08:21:10;;;;;;;1.63;1.30;;;22.60;41.20;;;;;;6150931;28;83850;-66
2021/05/24 08:24:10;;;;;;;4.00;1.70;;;22.60;41.00;;;;;;6153091;28;81278;-67
2021/05/24 08:27:11;;;;;;;3.28;1.40;;;22.70;40.90;;;;;;6176283;28;80967;-66
2021/05/24 08:30:11;;;;;;;1.80;1.60;;;22.70;40.90;;;;;;6154055;28;81673;-66
2021/05/24 08:33:12;;;;;;;3.90;1.85;;;22.70;41.20;;;;;;6157500;28;80697;-67
2021/05/24 08:36:12;;;;;;;2.20;1.35;;;22.70;41.50;;;;;;6177433;28;82007;-66
2021/05/24 08:39:13;;;;;;;2.40;1.33;;;22.70;41.20;;;;;;6161590;28;81553;-67
2021/05/24 08:42:13;;;;;;;2.28;1.52;;;22.70;41.20;;;;;;6177540;28;80828;-67
2021/05/24 08:45:14;;;;;;;2.47;1.90;;;22.70;41.10;;;;;;6154479;28;80398;-67
2021/05/24 08:48:14;;;;;;;2.92;1.65;;;22.70;40.90;;;;;;6174780;28;80598;-67
2021/05/24 08:51:15;;;;;;;2.13;1.40;;;22.70;41.00;;;;;;6179619;28;87828;-66
2021/05/24 08:54:15;;;;;;;2.35;1.45;;;22.70;41.10;;;;;;6154466;28;82516;-66
2021/05/24 08:57:16;;;;;;;3.28;1.63;;;22.70;40.80;;;;;;6175864;28;81078;-67
2021/05/24 09:00:16;;;;;;;2.65;1.60;;;22.70;41.10;;;;;;6154027;28;81702;-67
2021/05/24 09:03:17;;;;;;;3.78;1.65;;;22.70;40.90;;;;;;6157093;28;81559;-67
2021/05/24 09:06:17;;;;;;;2.40;1.23;;;22.70;41.10;;;;;;6155051;28;80375;-68
2021/05/24 09:09:18;;;;;;;31.73;2.20;;;22.70;41.00;;;;;;6183803;28;82193;-67
2021/05/24 09:12:21;;;;;;;2.20;1.33;;;22.70;41.40;;;;;;6157025;28;81226;-67
2021/05/24 09:15:21;;;;;;;2.53;1.60;;;22.80;41.00;;;;;;6157613;28;84054;-67
2021/05/24 09:18:23;;;;;;;1.73;1.20;;;22.70;40.90;;;;;;6154136;28;80989;-67
2021/05/24 09:21:24;;;;;;;3.45;1.70;;;22.70;40.80;;;;;;6175439;28;79946;-67
2021/05/24 09:24:24;;;;;;;1.60;1.27;;;22.70;40.90;;;;;;6150267;28;80942;-67
2021/05/24 09:27:25;;;;;;;3.67;1.40;;;22.70;41.00;;;;;;6150850;27;82936;-67
2021/05/24 09:30:26;;;;;;;2.67;1.40;;;22.80;41.50;;;;;;6156416;28;81637;-67
2021/05/24 09:33:26;;;;;;;4.45;1.88;;;22.80;41.50;;;;;;6188096;28;80602;-67
2021/05/24 09:36:27;;;;;;;2.17;1.40;;;22.80;41.50;;;;;;6176476;28;80517;-68
2021/05/24 09:39:28;;;;;;;8.80;3.05;;;22.80;41.60;;;;;;6176604;28;80512;-68
2021/05/24 09:42:28;;;;;;;7.97;2.20;;;22.80;41.90;;;;;;6175771;28;80502;-67
2021/05/24 09:45:28;;;;;;;3.70;1.42;;;22.80;42.40;;;;;;6177434;28;81253;-68
2021/05/24 09:48:29;;;;;;;6.43;2.00;;;22.80;41.90;;;;;;6175754;28;80834;-68
2021/05/24 09:51:29;;;;;;;8.18;2.17;;;22.80;42.00;;;;;;6177567;28;81665;-68
2021/05/24 09:54:30;;;;;;;8.75;2.47;;;22.90;42.20;;;;;;6157075;28;80460;-67
2021/05/24 09:57:30;;;;;;;7.80;2.17;;;22.80;42.20;;;;;;6171883;28;80770;-68
2021/05/24 10:00:39;;;;;;;6.32;1.70;;;22.90;42.50;;;;;;6156114;28;80915;-68
2021/05/24 10:03:40;;;;;;;7.90;1.50;;;22.90;42.40;;;;;;6188288;28;83396;-68
2021/05/24 10:06:41;;;;;;;4.40;1.60;;;22.90;42.40;;;;;;6153808;28;80997;-69
2021/05/24 10:09:42;;;;;;;8.10;1.92;;;22.90;42.30;;;;;;6165083;28;80163;-69
2021/05/24 10:12:42;;;;;;;9.15;2.50;;;22.90;42.20;;;;;;6150717;28;81371;-69
2021/05/24 10:15:44;;;;;;;7.85;1.67;;;22.90;42.40;;;;;;6151058;28;83807;-68
2021/05/24 10:18:45;;;;;;;5.18;2.00;;;22.90;42.30;;;;;;6166126;28;82164;-68
2021/05/24 10:21:45;;;;;;;3.67;1.52;;;22.90;42.40;;;;;;6171414;28;80533;-70
2021/05/24 10:24:46;;;;;;;10.10;2.28;;;22.90;42.50;;;;;;6149804;28;80824;-69
2021/05/24 10:27:50;;;;;;;3.42;1.58;;;22.90;42.40;;;;;;6176226;28;81688;-69
2021/05/24 10:30:51;;;;;;;3.63;1.63;;;22.90;41.90;;;;;;6156901;28;82364;-71
2021/05/24 10:33:51;;;;;;;8.98;1.60;;;23.00;41.80;;;;;;6178694;28;80650;-71
2021/05/24 10:36:52;;;;;;;5.90;1.60;;;23.00;41.70;;;;;;6178157;28;80495;-70
2021/05/24 10:39:52;;;;;;;5.03;2.40;;;23.00;41.20;;;;;;6158585;28;81498;-69
2021/05/24 10:42:55;;;;;;;5.70;1.85;;;22.90;40.90;;;;;;6194029;28;80435;-69
2021/05/24 10:45:59;;;;;;;2.33;1.70;;;23.00;40.60;;;;;;6158570;28;81584;-68
2021/05/24 10:49:00;;;;;;;3.22;1.48;;;23.00;40.40;;;;;;6172039;28;82993;-68
2021/05/24 10:52:04;;;;;;;2.10;1.23;;;22.90;40.50;;;;;;6164141;28;80902;-68
2021/05/24 10:55:05;;;;;;;2.13;1.50;;;22.90;40.40;;;;;;6173353;28;80946;-68
2021/05/24 10:58:05;;;;;;;3.38;1.45;;;22.90;40.50;;;;;;6175469;28;80477;-69
2021/05/24 11:01:06;;;;;;;2.95;1.40;;;22.90;40.60;;;;;;6174630;28;81386;-69
2021/05/24 11:04:06;;;;;;;5.22;1.88;;;22.90;40.50;;;;;;6173525;28;80612;-68
2021/05/24 11:07:07;;;;;;;2.78;1.52;;;22.90;40.80;;;;;;6170511;27;80623;-68
2021/05/24 11:10:07;;;;;;;2.50;1.30;;;22.90;41.00;;;;;;6174957;28;81435;-67
2021/05/24 11:13:09;;;;;;;2.05;1.20;;;23.00;40.70;;;;;;6164048;28;81380;-68
2021/05/24 11:16:10;;;;;;;5.40;1.40;;;23.00;40.60;;;;;;6176422;28;81958;-68
2021/05/24 11:19:10;;;;;;;7.00;1.65;;;23.00;40.60;;;;;;6158746;28;82048;-68
2021/05/24 11:22:11;;;;;;;3.70;1.77;;;23.00;40.60;;;;;;6154626;28;81003;-69
2021/05/24 11:25:49;;;;;;;2.22;1.27;;;23.10;40.50;;;;;;6164643;28;80318;-68
2021/05/24 11:28:32;;;;;;;1.75;1.40;;;23.00;41.00;;;;;;6170863;27;81293;-69
2021/05/24 11:31:32;;;;;;;2.08;1.42;;;23.10;40.30;;;;;;6157450;28;81375;-69
2021/05/24 11:34:34;;;;;;;1.58;1.30;;;23.10;40.50;;;;;;6153734;28;80135;-69
2021/05/24 11:37:34;;;;;;;1.92;1.23;;;23.10;40.50;;;;;;6166746;28;80304;-69
2021/05/24 11:40:35;;;;;;;3.88;1.73;;;23.10;41.10;;;;;;6177197;28;81364;-69
2021/05/24 11:43:38;;;;;;;3.13;1.40;;;23.10;40.80;;;;;;6164930;28;83787;-68
2021/05/24 11:46:38;;;;;;;1.60;1.40;;;23.10;40.60;;;;;;6166889;28;80307;-68
2021/05/24 11:49:39;;;;;;;2.92;1.13;;;23.10;40.80;;;;;;6169534;28;81002;-68
2021/05/24 11:52:40;;;;;;;3.53;1.60;;;23.10;40.80;;;;;;6169021;28;83713;-68
2021/05/24 11:55:40;;;;;;;1.90;1.30;;;23.10;40.90;;;;;;6165264;28;80286;-68
2021/05/24 11:58:41;;;;;;;1.17;1.10;;;23.10;40.90;;;;;;6180254;28;81141;-67
2021/05/24 12:01:41;;;;;;;1.55;1.40;;;23.20;41.00;;;;;;6166239;28;80520;-68
2021/05/24 12:04:42;;;;;;;1.33;1.23;;;23.10;40.90;;;;;;6165980;28;80493;-68
2021/05/24 12:07:42;;;;;;;3.60;1.58;;;23.10;40.70;;;;;;6163236;28;80431;-67
2021/05/24 12:10:49;;;;;;;3.25;1.83;;;23.20;40.30;;;;;;6159033;28;80589;-67
2021/05/24 12:13:49;;;;;;;2.22;1.20;;;23.20;39.90;;;;;;6179068;28;80486;-67
2021/05/24 12:16:51;;;;;;;2.45;1.67;;;23.10;39.90;;;;;;6180526;28;87195;-67
2021/05/24 12:19:53;;;;;;;6.65;1.70;;;23.20;40.10;;;;;;6176698;28;80903;-66
2021/05/24 12:22:55;;;;;;;1.95;1.50;;;23.10;39.90;;;;;;6178061;28;81363;-65
2021/05/24 12:25:56;;;;;;;2.33;1.60;;;23.20;40.20;;;;;;6179622;28;83672;-67
2021/05/24 12:28:56;;;;;;;4.30;2.13;;;23.10;40.30;;;;;;6169627;28;80760;-68
2021/05/24 12:31:57;;;;;;;3.65;1.92;;;23.20;40.50;;;;;;6157834;28;80488;-68
2021/05/24 12:34:57;;;;;;;4.80;1.80;;;23.20;40.50;;;;;;6171014;28;80808;-68
2021/05/24 12:38:10;;;;;;;4.88;2.13;;;23.20;40.60;;;;;;6167111;28;81191;-68
2021/05/24 12:41:11;;;;;;;2.85;1.83;;;23.20;40.20;;;;;;6172947;28;82019;-68
2021/05/24 12:44:11;;;;;;;1.85;1.40;;;23.20;39.90;;;;;;6166873;28;80220;-68
2021/05/24 12:47:12;;;;;;;3.50;1.50;;;23.20;39.50;;;;;;6172969;28;80651;-68
2021/05/24 12:50:12;;;;;;;2.40;1.60;;;23.10;39.50;;;;;;6182015;28;80278;-68
2021/05/24 12:53:13;;;;;;;1.65;1.55;;;23.20;39.10;;;;;;6181569;28;80954;-68
2021/05/24 12:56:13;;;;;;;4.18;1.40;;;23.20;39.20;;;;;;6164987;28;80577;-68
2021/05/24 12:59:14;;;;;;;1.38;1.27;;;23.20;39.40;;;;;;6157471;28;81216;-68
2021/05/24 13:02:15;;;;;;;2.17;1.35;;;23.20;39.60;;;;;;6158263;28;80144;-68
2021/05/24 13:05:16;;;;;;;2.35;1.38;;;23.20;39.60;;;;;;6174164;28;81569;-65
2021/05/24 13:08:16;;;;;;;8.02;1.58;;;23.20;39.80;;;;;;6165255;28;80960;-68
2021/05/24 13:11:18;;;;;;;3.00;1.75;;;23.10;40.40;;;;;;6169849;28;80634;-67
2021/05/24 13:14:18;;;;;;;2.75;1.85;;;23.10;40.50;;;;;;6155119;28;81194;-69
2021/05/24 13:17:36;;;;;;;6.70;1.42;;;23.20;40.60;;;;;;6165467;28;81783;-69
2021/05/24 13:30:10;;;;;;;4.00;1.70;;;23.20;41.20;;;;;;6149481;28;80378;-70
2021/05/24 13:33:11;;;;;;;2.20;1.52;;;23.20;41.70;;;;;;6179454;28;80810;-70
2021/05/24 13:36:12;;;;;;;3.67;1.83;;;23.20;41.70;;;;;;6188165;28;80144;-68
2021/05/24 13:39:14;;;;;;;2.10;1.30;;;23.20;41.40;;;;;;6177094;28;80323;-69
2021/05/24 13:42:15;;;;;;;2.20;1.63;;;23.30;42.20;;;;;;6155815;28;80831;-70
2021/05/24 13:45:15;;;;;;;1.95;1.50;;;23.20;41.90;;;;;;6156733;28;80773;-70
2021/05/24 13:48:16;;;;;;;5.72;3.03;;;23.30;41.80;;;;;;6154556;28;80596;-70
2021/05/24 13:51:16;;;;;;;34.75;11.13;;;23.20;41.60;;;;;;6152426;28;80301;-69
2021/05/24 13:54:18;;;;;;;86.15;33.08;;;23.30;41.40;;;;;;6154578;28;83188;-69
2021/05/24 13:57:19;;;;;;;161.43;55.28;;;23.30;41.40;;;;;;6177227;28;83331;-69
2021/05/24 14:00:24;;;;;;;189.98;70.93;;;23.30;41.20;;;;;;6151592;28;85322;-68
2021/05/24 14:03:26;;;;;;;166.53;67.23;;;23.30;41.50;;;;;;6183734;28;89135;-69
2021/05/24 14:06:27;;;;;;;170.18;62.33;;;23.30;41.40;;;;;;6190274;28;83517;-68
2021/05/24 14:09:27;;;;;;;144.20;53.25;;;23.30;41.60;;;;;;6188731;28;84455;-68
2021/05/24 14:12:28;;;;;;;111.95;42.38;;;23.30;41.30;;;;;;6167196;28;83551;-69
2021/05/24 14:15:28;;;;;;;105.35;39.17;;;23.30;40.90;;;;;;6152497;28;83078;-69
2021/05/24 14:18:29;;;;;;;101.35;35.63;;;23.30;40.50;;;;;;6152321;28;83741;-69
2021/05/24 14:21:30;;;;;;;94.88;34.30;;;23.20;40.60;;;;;;6171793;28;83509;-69
2021/05/24 14:24:30;;;;;;;94.68;30.33;;;23.20;40.80;;;;;;6155040;28;84278;-69
2021/05/24 14:27:31;;;;;;;79.03;30.05;;;23.30;41.20;;;;;;6177024;28;83206;-69
2021/05/24 14:30:32;;;;;;;78.05;26.23;;;23.30;41.00;;;;;;6177581;28;83305;-69
2021/05/24 14:33:33;;;;;;;70.35;23.80;;;23.20;41.10;;;;;;6176449;28;83200;-69
2021/05/24 14:36:33;;;;;;;55.35;18.88;;;23.30;41.00;;;;;;6173277;28;83223;-69
2021/05/24 14:39:34;;;;;;;41.30;15.52;;;23.30;41.00;;;;;;6153140;28;83093;-69
2021/05/24 14:42:34;;;;;;;49.15;15.52;;;23.30;40.90;;;;;;6155737;28;84654;-69
2021/05/24 14:45:35;;;;;;;34.50;13.25;;;23.30;40.70;;;;;;6171018;28;84496;-68
2021/05/24 14:48:36;;;;;;;27.75;11.48;;;23.30;40.70;;;;;;6149775;28;84543;-69
2021/05/24 14:51:40;;;;;;;25.98;10.38;;;23.30;40.60;;;;;;6191665;28;83344;-68
2021/05/24 14:54:40;;;;;;;34.60;11.70;;;23.30;40.90;;;;;;6171184;28;83464;-68
2021/05/24 14:57:42;;;;;;;25.15;9.98;;;23.30;40.80;;;;;;6151177;28;83119;-68
2021/05/24 15:00:42;;;;;;;23.20;7.95;;;23.30;40.80;;;;;;6175669;28;84981;-69
2021/05/24 15:03:43;;;;;;;22.15;8.73;;;23.30;40.50;;;;;;6172747;28;84014;-68
2021/05/24 15:06:43;;;;;;;13.73;6.35;;;23.30;40.50;;;;;;6153120;28;80498;-68
2021/05/24 15:09:44;;;;;;;14.77;6.20;;;23.30;40.50;;;;;;6148677;28;81322;-68
2021/05/24 15:12:46;;;;;;;13.77;5.25;;;23.30;40.60;;;;;;6150690;28;80518;-69
2021/05/24 15:15:47;;;;;;;15.38;5.20;;;23.30;40.50;;;;;;6172699;28;80806;-68
2021/05/24 15:18:47;;;;;;;10.32;4.72;;;23.30;40.40;;;;;;6156399;28;80407;-70
2021/05/24 15:21:48;;;;;;;9.43;3.97;;;23.30;40.40;;;;;;6157811;28;80448;-69
2021/05/24 15:24:51;;;;;;;7.40;3.80;;;23.30;40.80;;;;;;6178129;28;80303;-69
2021/05/24 15:27:51;;;;;;;10.07;3.88;;;23.30;40.40;;;;;;6158216;28;82165;-68
2021/05/24 15:30:55;;;;;;;7.95;3.50;;;23.30;40.40;;;;;;6158704;28;81457;-69
2021/05/24 15:33:55;;;;;;;6.65;3.20;;;23.20;40.40;;;;;;6158622;28;80462;-69
2021/05/24 15:36:56;;;;;;;7.50;3.40;;;23.20;40.10;;;;;;6163572;28;80477;-69
2021/05/24 15:39:56;;;;;;;10.23;3.50;;;23.20;40.50;;;;;;6193877;28;80666;-69
2021/05/24 15:42:57;;;;;;;5.30;2.80;;;23.20;40.50;;;;;;6164325;28;81629;-68
2021/05/24 15:45:59;;;;;;;4.43;2.28;;;23.20;40.40;;;;;;6183260;28;80415;-69
2021/05/24 15:48:59;;;;;;;5.97;2.65;;;23.10;40.40;;;;;;6177632;28;80522;-66
2021/05/24 15:52:00;;;;;;;10.32;2.97;;;23.20;40.40;;;;;;6158162;28;81817;-70